Blue Yonder II — TG — position and weather

sailwx.info

Track history (hours):
 
Tides and Currents Weather Stations Pressure Air Temp Water Temp Dewpoint Dewpoint Depression Visibility Wind Speed Wind Dir Waves Ship Positions

Blue Yonder II

Last reported at 2014-Jul-14 20:33 UTC. Time now 2014-Jul-31 17:35 UTC.
Position N 52°26' E 004°32'.
Warning: this ship's position is 16 days out of date.

Length 28 m.

Type: Pleasure craft. MMSI: 316012247.

Date/timePositionNaut miles runAvg speedWind from/ knotsBaromVisibWave heightAir tempDewpointWater temp
2014-Jul-14 20:33N 52°26' E 004°32'4838215.4
2014-Jul-13 22:06N 49°16' W 123°07'1 2.0
2014-Jul-13 21:33N 49°17' W 123°09'1010.2
2014-Jul-13 20:33N 49°20' W 123°23'1110.7
2014-Jul-13 19:32N 49°23' W 123°39'1110.7
2014-Jul-13 18:33N 49°27' W 123°54'10 9.8
2014-Jul-13 17:33N 49°35' W 124°03'3 3.0
2014-Jul-13 16:29N 49°38' W 124°02'0 0.0
2014-Jul-13 15:32N 49°38' W 124°02'0 0.0
2014-Jul-11 22:31N 49°38' W 124°01'9 9.4
2014-Jul-11 21:32N 49°41' W 124°15'1312.8
2014-Jul-11 20:33N 49°47' W 124°32'1312.1
2014-Jul-11 19:30N 49°52' W 124°50'  
2014-Jul-05 21:22N 49°51' W 124°35'911.4
2014-Jul-05 20:33N 49°45' W 124°24'1212.0
2014-Jul-05 19:32N 49°38' W 124°09'8 8.2
2014-Jul-05 18:30N 49°32' W 123°59'1 0.7
2014-Jul-05 17:31N 49°32' W 123°58'  
Track history (hours):
 
Tides and Currents Weather Stations Pressure Air Temp Water Temp Dewpoint Dewpoint Depression Visibility Wind Speed Wind Dir Waves Ship Positions

Blue Yonder II

Last reported at 2014-Jul-14 20:33 UTC. Time now 2014-Jul-31 17:35 UTC.
Position N 52°26' E 004°32'.
Warning: this ship's position is 16 days out of date.

Length 28 m.

Type: Pleasure craft. MMSI: 316012247.

Date/timePositionNaut miles runAvg speedWind from/ knotsBaromVisibWave heightAir tempDewpointWater temp
2014-Jul-14 20:33N 52°26' E 004°32'4838215.4
2014-Jul-13 22:06N 49°16' W 123°07'1 2.0
2014-Jul-13 21:33N 49°17' W 123°09'1010.2
2014-Jul-13 20:33N 49°20' W 123°23'1110.7
2014-Jul-13 19:32N 49°23' W 123°39'1110.7
2014-Jul-13 18:33N 49°27' W 123°54'10 9.8
2014-Jul-13 17:33N 49°35' W 124°03'3 3.0
2014-Jul-13 16:29N 49°38' W 124°02'0 0.0
2014-Jul-13 15:32N 49°38' W 124°02'0 0.0
2014-Jul-11 22:31N 49°38' W 124°01'9 9.4
2014-Jul-11 21:32N 49°41' W 124°15'1312.8
2014-Jul-11 20:33N 49°47' W 124°32'1312.1
2014-Jul-11 19:30N 49°52' W 124°50'  
2014-Jul-05 21:22N 49°51' W 124°35'911.4
2014-Jul-05 20:33N 49°45' W 124°24'1212.0
2014-Jul-05 19:32N 49°38' W 124°09'8 8.2
2014-Jul-05 18:30N 49°32' W 123°59'1 0.7
2014-Jul-05 17:31N 49°32' W 123°58'  

Dump ship's entire track history